East Lansing, Michigan
Current Conditions -  °F | °C
As of 12:53 AM on Friday 31 Oct 2014 (Local Time) from KLAN Reporting Station
Overcast Overcast  
Wind Chill: 39°   Ceiling: 9000
Heat Index: 42°   Visibility: 10mi
Dew Point: 36°   Wind: 5mph
Humidity: 79%   Direction: 230°SW
Pressure: 29.98"   Gusts: NA
Location:  42.74°N, 84.48°W
Report Text: KLAN 310453Z 23004KT 10SM OVC090 06/02 A2998 RMK AO2 SLP158 T00560022 401001006
Loading
Personal Weather Stations






























Interactive Weather Map
Tropical Storm Tracking
New forecast layout! Learn more

10-Day Weather Forecast

Advertisements
Track Severe Weather on mobile